createdAt,value
2018-04-19T00:45:53.990Z,16.49
2018-04-19T00:48:27.244Z,16.46
2018-04-19T00:51:00.511Z,16.46
2018-04-19T00:53:33.776Z,16.46
2018-04-19T00:56:07.061Z,16.45
2018-04-19T00:58:40.310Z,16.44
2018-04-19T02:32:18.135Z,15.05
2018-04-19T02:34:51.397Z,15.01
2018-04-19T02:37:24.681Z,14.98
2018-04-19T02:39:57.930Z,14.95
2018-04-19T02:42:31.971Z,14.91
2018-04-19T02:45:05.248Z,14.86
2018-04-19T03:46:12.483Z,14.04
2018-04-19T03:48:45.752Z,13.97
2018-04-19T03:51:19.793Z,13.96
2018-04-19T03:53:53.086Z,13.92
2018-04-19T03:56:26.336Z,13.87
2018-04-19T03:59:00.367Z,13.83
2018-04-19T04:30:53.896Z,13.68
2018-04-19T04:33:27.168Z,13.65
2018-04-19T04:36:00.444Z,13.65
2018-04-19T04:38:33.707Z,13.69
2018-04-19T04:41:07.735Z,13.74
2018-04-19T04:43:41.781Z,13.80
2018-04-19T04:46:15.033Z,13.82
2018-04-19T04:48:48.320Z,13.87
2018-04-19T04:51:22.358Z,13.93
2018-04-19T04:53:55.635Z,13.96
2018-04-19T04:56:29.693Z,14.02
2018-04-19T04:59:03.015Z,14.06
2018-04-19T05:01:36.287Z,14.09
2018-04-19T05:04:09.581Z,14.10
2018-04-19T05:06:42.827Z,14.11
2018-04-19T05:09:16.105Z,14.08
2018-04-19T05:11:49.356Z,14.05
2018-04-19T05:14:22.633Z,14.02
2018-04-19T05:16:55.904Z,13.96
2018-04-19T05:19:29.945Z,13.96
2018-04-19T05:22:03.196Z,13.96
2018-04-19T05:24:37.238Z,13.98
2018-04-19T05:27:10.514Z,13.98
2018-04-19T05:29:44.564Z,14.00
2018-04-19T05:32:17.944Z,14.04
2018-04-19T05:34:51.193Z,14.16
2018-04-19T05:37:24.464Z,14.25
2018-04-19T05:39:57.722Z,14.30
2018-04-19T05:42:30.996Z,14.37
2018-04-19T05:45:04.261Z,14.40
2018-04-19T05:47:37.542Z,14.47
2018-04-19T05:50:10.784Z,14.50
2018-04-19T05:52:44.094Z,14.53
2018-04-19T05:55:17.348Z,14.59
2018-04-19T05:57:50.657Z,14.62
2018-04-19T06:00:24.672Z,14.69
2018-04-19T06:02:57.968Z,14.74
2018-04-19T06:05:32.000Z,14.79
2018-04-19T06:08:37.170Z,14.81
2018-04-19T06:11:10.401Z,14.84
2018-04-19T06:13:43.762Z,14.87
2018-04-19T06:16:17.012Z,14.94
2018-04-19T06:18:50.296Z,14.96
2018-04-19T06:21:24.314Z,14.96
2018-04-19T06:23:57.591Z,14.99
2018-04-19T06:26:31.620Z,15.02
2018-04-19T06:29:04.901Z,15.04
2018-04-19T07:00:54.394Z,15.56
2018-04-19T07:03:27.651Z,15.62
2018-04-19T07:06:01.699Z,15.70
2018-04-19T07:08:34.955Z,15.74
2018-04-19T07:11:08.993Z,15.83
2018-04-19T07:13:42.243Z,15.90
2018-04-19T08:01:51.922Z,17.28
2018-04-19T08:04:25.188Z,17.36
2018-04-19T08:06:59.212Z,17.46
2018-04-19T08:09:32.472Z,17.52
2018-04-19T08:12:05.760Z,17.60
2018-04-19T08:14:39.008Z,17.69
2018-04-19T09:02:43.566Z,18.93
2018-04-19T09:05:16.820Z,18.97
2018-04-19T09:07:50.252Z,19.02
2018-04-19T09:10:23.508Z,19.11
2018-04-19T09:12:56.822Z,19.18
2018-04-19T10:01:06.858Z,20.41
2018-04-19T10:03:45.619Z,20.49
2018-04-19T10:06:18.872Z,20.56
2018-04-19T10:08:52.151Z,20.66
2018-04-19T10:11:25.403Z,20.75
2018-04-19T10:13:59.442Z,20.80
2018-04-19T11:02:04.862Z,21.72
2018-04-19T11:04:38.915Z,21.77
2018-04-19T11:07:12.168Z,21.84
2018-04-19T11:09:45.436Z,21.87
2018-04-19T11:12:18.697Z,21.93
2018-04-19T11:14:51.969Z,21.98
2018-04-19T12:02:56.093Z,23.44
2018-04-19T12:05:29.360Z,23.56
2018-04-19T12:08:02.648Z,23.73
2018-04-19T12:10:36.673Z,23.91
2018-04-19T12:13:09.939Z,24.03
2018-04-19T13:01:15.514Z,26.55
2018-04-19T13:03:49.554Z,26.69
2018-04-19T13:06:22.818Z,26.87
2018-04-19T13:08:56.880Z,26.75
2018-04-19T13:11:30.135Z,26.98
2018-04-19T13:14:03.408Z,27.10
2018-04-19T14:02:08.724Z,29.77
2018-04-19T14:04:42.700Z,30.01
2018-04-19T14:07:15.975Z,30.20
2018-04-19T14:09:49.242Z,30.04
2018-04-19T14:12:22.515Z,30.31
2018-04-19T14:14:55.768Z,29.99
2018-04-19T14:46:44.328Z,32.28
2018-04-19T14:49:17.638Z,32.79
2018-04-19T14:51:50.879Z,33.16
2018-04-19T14:54:24.936Z,33.04
2018-04-19T14:56:58.213Z,32.96
2018-04-19T14:59:31.466Z,33.09
2018-04-19T15:31:22.563Z,33.75
2018-04-19T15:33:55.844Z,33.69
2018-04-19T15:36:29.108Z,33.64
2018-04-19T15:39:03.145Z,33.81
2018-04-19T15:41:36.466Z,33.80
2018-04-19T15:44:10.435Z,33.77
2018-04-19T15:46:43.710Z,33.37
2018-04-19T15:49:16.964Z,33.03
2018-04-19T15:51:50.239Z,32.84
2018-04-19T15:54:23.490Z,32.31
2018-04-19T15:56:56.886Z,32.12
2018-04-19T15:59:30.144Z,32.11
2018-04-19T16:02:03.465Z,32.18
2018-04-19T16:04:36.717Z,32.10
2018-04-19T16:07:09.993Z,32.41
2018-04-19T16:09:43.260Z,32.51
2018-04-19T16:12:16.645Z,32.24
2018-04-19T16:14:49.900Z,31.85
2018-04-19T16:17:23.228Z,31.88
2018-04-19T16:19:56.493Z,31.72
2018-04-19T16:22:29.774Z,31.72
2018-04-19T16:25:03.045Z,31.41
2018-04-19T16:27:37.113Z,31.24
2018-04-19T16:30:10.361Z,31.05
2018-04-19T16:32:43.826Z,31.21
2018-04-19T16:35:18.736Z,31.03
2018-04-19T16:37:52.293Z,30.89
2018-04-19T16:40:25.619Z,30.91
2018-04-19T16:42:59.868Z,30.97
2018-04-19T16:45:33.134Z,31.00
2018-04-19T16:48:06.412Z,30.88
2018-04-19T16:50:39.672Z,30.88
2018-04-19T16:53:12.995Z,31.03
2018-04-19T16:55:47.030Z,30.92
2018-04-19T16:58:20.268Z,30.75
2018-04-19T17:00:57.261Z,30.56
2018-04-19T17:03:31.599Z,30.40
2018-04-19T17:06:05.161Z,30.15
2018-04-19T17:08:38.547Z,29.94
2018-04-19T17:11:11.991Z,29.47
2018-04-19T17:13:45.516Z,29.25
2018-04-19T17:16:18.786Z,29.16
2018-04-19T17:18:52.049Z,29.08
2018-04-19T17:21:26.067Z,29.00
2018-04-19T17:24:00.160Z,28.93
2018-04-19T17:26:33.417Z,28.72
2018-04-19T17:29:06.700Z,28.62
2018-04-19T17:31:39.952Z,28.61
2018-04-19T17:34:13.997Z,28.52
2018-04-19T17:36:47.264Z,28.35
2018-04-19T17:39:21.292Z,28.12
2018-04-19T17:41:54.584Z,27.97
2018-04-19T17:44:27.864Z,27.90
2018-04-19T17:47:01.885Z,27.66
2018-04-19T17:49:35.169Z,27.32
2018-04-19T17:52:08.431Z,27.12
2018-04-19T17:54:41.724Z,26.91
2018-04-19T17:57:15.012Z,26.78
2018-04-19T17:59:49.053Z,26.74
2018-04-19T18:02:23.073Z,26.57
2018-04-19T18:04:56.349Z,26.41
2018-04-19T18:07:29.616Z,26.35
2018-04-19T18:10:02.893Z,26.18
2018-04-19T18:12:36.145Z,26.08
2018-04-19T18:15:10.187Z,25.99
2018-04-19T18:17:43.464Z,25.87
2018-04-19T18:20:17.480Z,25.76
2018-04-19T18:22:50.830Z,25.79
2018-04-19T18:25:24.072Z,25.84
2018-04-19T18:27:57.350Z,25.83
2018-04-19T18:30:31.367Z,25.77
2018-04-19T18:33:05.404Z,25.66
2018-04-19T18:35:38.664Z,25.61
2018-04-19T18:38:12.704Z,25.62
2018-04-19T18:40:45.961Z,25.62
2018-04-19T18:43:20.016Z,25.58
2018-04-19T18:45:53.317Z,25.49
2018-04-19T18:48:26.720Z,25.45
2018-04-19T18:51:00.019Z,25.35
2018-04-19T18:53:33.307Z,25.31
2018-04-19T18:56:06.564Z,25.26
2018-04-19T18:58:39.835Z,25.16
2018-04-19T19:01:13.092Z,25.11
2018-04-19T19:03:46.376Z,25.05
2018-04-19T19:06:19.628Z,25.01
2018-04-19T19:08:53.018Z,24.92
2018-04-19T19:11:26.266Z,24.83
2018-04-19T19:13:59.531Z,24.78
2018-04-19T19:16:32.790Z,24.71
2018-04-19T19:22:18.598Z,24.62
2018-04-19T19:24:51.868Z,24.52
2018-04-19T19:27:25.140Z,24.33
2018-04-19T19:29:58.405Z,24.22
2018-04-19T19:32:32.438Z,24.19
2018-04-19T19:35:05.717Z,24.05
2018-04-19T19:37:39.742Z,23.92
2018-04-19T19:40:13.012Z,23.79
2018-04-19T19:42:47.041Z,23.66
2018-04-19T19:45:20.348Z,23.58
2018-04-19T19:47:53.600Z,23.50
2018-04-19T19:50:26.984Z,23.36
2018-04-19T19:53:00.257Z,23.26
2018-04-19T19:55:33.533Z,23.21
2018-04-19T19:58:06.788Z,23.15
2018-04-19T20:00:40.845Z,23.04
2018-04-19T20:03:14.089Z,22.94
2018-04-19T20:05:47.379Z,22.93
2018-04-19T20:08:20.620Z,22.87
2018-04-19T20:10:53.898Z,22.79
2018-04-19T20:13:27.151Z,22.69
2018-04-19T20:16:00.448Z,22.65
2018-04-19T20:18:33.708Z,22.63
2018-04-19T20:21:06.977Z,22.64
2018-04-19T20:23:40.227Z,22.61
2018-04-19T20:26:13.512Z,22.58
2018-04-19T20:28:46.765Z,22.51
2018-04-19T20:31:20.054Z,22.43
2018-04-19T20:33:53.300Z,22.35
2018-04-19T20:36:26.588Z,22.28
2018-04-19T20:38:59.844Z,22.20
2018-04-19T20:41:33.116Z,22.16
2018-04-19T20:44:06.376Z,22.09
2018-04-19T20:46:39.675Z,22.04
2018-04-19T20:49:12.928Z,21.95
2018-04-19T20:51:46.502Z,21.85
2018-04-19T20:54:19.755Z,21.79
2018-04-19T20:56:53.032Z,21.75
2018-04-19T20:59:26.292Z,21.67
2018-04-19T21:01:59.598Z,21.60
2018-04-19T21:04:33.590Z,21.54
2018-04-19T21:07:06.864Z,21.47
2018-04-19T21:09:40.884Z,21.37
2018-04-19T21:12:14.923Z,21.26
2018-04-19T21:14:48.180Z,21.20
2018-04-19T21:17:22.224Z,21.17
2018-04-19T21:19:55.472Z,21.01
2018-04-19T21:22:28.743Z,20.92
2018-04-19T21:25:01.997Z,20.89
2018-04-19T21:27:35.287Z,20.78
2018-04-19T21:30:08.545Z,20.68
2018-04-19T21:32:41.812Z,20.64
2018-04-19T21:35:15.844Z,20.59
2018-04-19T21:37:49.244Z,20.62
2018-04-19T21:40:22.499Z,20.62
2018-04-19T21:42:55.873Z,20.58
2018-04-19T21:45:29.135Z,20.50
2018-04-19T21:48:08.171Z,20.48
2018-04-19T21:50:42.204Z,20.45
2018-04-19T21:53:16.228Z,20.43
2018-04-19T21:55:49.540Z,20.44
2018-04-19T21:58:23.529Z,20.41
2018-04-19T22:00:56.788Z,20.38
2018-04-19T22:03:30.058Z,20.32
2018-04-19T22:06:03.311Z,20.28
2018-04-19T22:08:36.593Z,20.20
2018-04-19T22:11:09.852Z,20.12
2018-04-19T22:13:43.124Z,20.08
2018-04-19T22:16:17.139Z,20.03
2018-04-19T22:18:50.435Z,19.99
2018-04-19T22:21:23.698Z,19.94
2018-04-19T22:23:56.969Z,19.90
2018-04-19T22:26:30.992Z,19.88
2018-04-19T22:29:05.024Z,19.85
2018-04-19T22:31:38.315Z,19.80
2018-04-19T22:34:11.596Z,19.77
2018-04-19T22:36:44.855Z,19.75
2018-04-19T22:39:18.124Z,19.67
2018-04-19T22:41:51.380Z,19.62
2018-04-19T22:44:24.651Z,19.54
2018-04-19T22:46:58.689Z,19.47
2018-04-19T22:49:31.948Z,19.39
2018-04-19T22:52:05.208Z,19.33
2018-04-19T22:54:38.487Z,19.24
2018-04-19T22:57:11.739Z,19.16
2018-04-19T22:59:45.782Z,19.11
2018-04-19T23:02:19.027Z,19.05
2018-04-19T23:04:52.296Z,19.01
2018-04-19T23:07:25.544Z,18.96
2018-04-19T23:09:58.824Z,18.88
2018-04-19T23:12:32.861Z,18.75
2018-04-19T23:15:06.153Z,18.67
